sensor_id;sensor_type;location;lat;lon;timestamp;P1;durP1;ratioP1;P2;durP2;ratioP2
2944;SDS011;1482;51.398;7.128;2023-11-19T00:02:06;4.97;;;3.50;;
2944;SDS011;1482;51.398;7.128;2023-11-19T00:04:33;4.50;;;4.10;;
2944;SDS011;1482;51.398;7.128;2023-11-19T00:07:01;4.27;;;3.87;;
2944;SDS011;1482;51.398;7.128;2023-11-19T00:09:29;6.40;;;3.97;;
2944;SDS011;1482;51.398;7.128;2023-11-19T00:11:55;5.13;;;4.63;;
2944;SDS011;1482;51.398;7.128;2023-11-19T00:14:20;7.23;;;5.20;;
2944;SDS011;1482;51.398;7.128;2023-11-19T00:16:46;5.43;;;4.50;;
2944;SDS011;1482;51.398;7.128;2023-11-19T00:19:11;5.23;;;4.73;;
2944;SDS011;1482;51.398;7.128;2023-11-19T00:21:37;6.83;;;4.80;;
2944;SDS011;1482;51.398;7.128;2023-11-19T00:24:03;6.13;;;5.43;;
2944;SDS011;1482;51.398;7.128;2023-11-19T00:26:29;6.60;;;4.90;;
2944;SDS011;1482;51.398;7.128;2023-11-19T00:28:55;5.23;;;4.83;;
2944;SDS011;1482;51.398;7.128;2023-11-19T00:31:21;5.43;;;4.93;;
2944;SDS011;1482;51.398;7.128;2023-11-19T00:33:46;4.83;;;4.53;;
2944;SDS011;1482;51.398;7.128;2023-11-19T00:36:12;5.30;;;4.80;;
2944;SDS011;1482;51.398;7.128;2023-11-19T00:38:38;5.03;;;4.63;;
2944;SDS011;1482;51.398;7.128;2023-11-19T00:41:03;4.70;;;4.30;;
2944;SDS011;1482;51.398;7.128;2023-11-19T00:43:29;6.37;;;5.37;;
2944;SDS011;1482;51.398;7.128;2023-11-19T00:45:54;4.90;;;4.60;;
2944;SDS011;1482;51.398;7.128;2023-11-19T00:48:20;5.57;;;5.17;;
2944;SDS011;1482;51.398;7.128;2023-11-19T00:50:46;5.47;;;5.07;;
2944;SDS011;1482;51.398;7.128;2023-11-19T00:53:11;6.13;;;5.63;;
2944;SDS011;1482;51.398;7.128;2023-11-19T00:55:37;6.83;;;5.80;;
2944;SDS011;1482;51.398;7.128;2023-11-19T00:58:02;5.93;;;5.37;;
2944;SDS011;1482;51.398;7.128;2023-11-19T01:00:28;5.07;;;4.67;;
2944;SDS011;1482;51.398;7.128;2023-11-19T01:02:54;6.33;;;5.10;;
2944;SDS011;1482;51.398;7.128;2023-11-19T01:05:22;6.27;;;5.17;;
2944;SDS011;1482;51.398;7.128;2023-11-19T01:07:48;6.40;;;5.70;;
2944;SDS011;1482;51.398;7.128;2023-11-19T01:10:14;5.57;;;5.07;;
2944;SDS011;1482;51.398;7.128;2023-11-19T01:12:40;8.60;;;4.67;;
2944;SDS011;1482;51.398;7.128;2023-11-19T01:15:07;7.93;;;5.13;;
2944;SDS011;1482;51.398;7.128;2023-11-19T01:17:33;6.57;;;4.73;;
2944;SDS011;1482;51.398;7.128;2023-11-19T01:19:58;4.20;;;3.80;;
2944;SDS011;1482;51.398;7.128;2023-11-19T01:22:24;5.13;;;4.73;;
2944;SDS011;1482;51.398;7.128;2023-11-19T01:24:49;4.30;;;3.90;;
2944;SDS011;1482;51.398;7.128;2023-11-19T01:27:17;2.77;;;2.47;;
2944;SDS011;1482;51.398;7.128;2023-11-19T01:29:42;2.40;;;2.20;;
2944;SDS011;1482;51.398;7.128;2023-11-19T01:32:08;4.37;;;2.00;;
2944;SDS011;1482;51.398;7.128;2023-11-19T01:34:33;1.90;;;1.80;;
2944;SDS011;1482;51.398;7.128;2023-11-19T01:36:59;1.77;;;1.67;;
2944;SDS011;1482;51.398;7.128;2023-11-19T01:39:25;2.77;;;2.57;;
2944;SDS011;1482;51.398;7.128;2023-11-19T01:41:50;2.33;;;2.13;;
2944;SDS011;1482;51.398;7.128;2023-11-19T01:44:16;3.03;;;2.83;;
2944;SDS011;1482;51.398;7.128;2023-11-19T01:46:44;3.10;;;2.90;;
2944;SDS011;1482;51.398;7.128;2023-11-19T01:49:15;4.03;;;2.60;;
2944;SDS011;1482;51.398;7.128;2023-11-19T01:51:42;3.60;;;3.30;;
2944;SDS011;1482;51.398;7.128;2023-11-19T01:54:08;3.93;;;3.47;;
2944;SDS011;1482;51.398;7.128;2023-11-19T01:56:34;4.67;;;3.43;;
2944;SDS011;1482;51.398;7.128;2023-11-19T01:59:00;3.90;;;3.00;;
2944;SDS011;1482;51.398;7.128;2023-11-19T02:01:27;3.30;;;3.10;;
2944;SDS011;1482;51.398;7.128;2023-11-19T02:03:52;4.33;;;3.30;;
2944;SDS011;1482;51.398;7.128;2023-11-19T02:06:18;6.43;;;3.40;;
2944;SDS011;1482;51.398;7.128;2023-11-19T02:08:44;3.20;;;2.90;;
2944;SDS011;1482;51.398;7.128;2023-11-19T02:11:10;4.87;;;3.10;;
2944;SDS011;1482;51.398;7.128;2023-11-19T02:13:37;4.70;;;3.53;;
2944;SDS011;1482;51.398;7.128;2023-11-19T02:16:03;5.73;;;3.17;;
2944;SDS011;1482;51.398;7.128;2023-11-19T02:18:29;3.83;;;3.53;;
2944;SDS011;1482;51.398;7.128;2023-11-19T02:20:58;9.13;;;2.63;;
2944;SDS011;1482;51.398;7.128;2023-11-19T02:23:26;4.60;;;2.90;;
2944;SDS011;1482;51.398;7.128;2023-11-19T02:28:22;4.47;;;2.47;;
2944;SDS011;1482;51.398;7.128;2023-11-19T02:30:48;7.93;;;3.03;;
2944;SDS011;1482;51.398;7.128;2023-11-19T02:33:13;4.30;;;2.40;;
2944;SDS011;1482;51.398;7.128;2023-11-19T02:35:40;5.20;;;2.40;;
2944;SDS011;1482;51.398;7.128;2023-11-19T02:38:06;6.53;;;3.60;;
2944;SDS011;1482;51.398;7.128;2023-11-19T02:40:32;11.13;;;3.03;;
2944;SDS011;1482;51.398;7.128;2023-11-19T02:42:58;5.43;;;3.07;;
2944;SDS011;1482;51.398;7.128;2023-11-19T02:45:24;5.63;;;3.37;;
2944;SDS011;1482;51.398;7.128;2023-11-19T02:47:51;4.90;;;2.40;;
2944;SDS011;1482;51.398;7.128;2023-11-19T02:50:18;6.80;;;3.30;;
2944;SDS011;1482;51.398;7.128;2023-11-19T02:52:50;7.27;;;2.90;;
2944;SDS011;1482;51.398;7.128;2023-11-19T02:55:17;8.47;;;3.33;;
2944;SDS011;1482;51.398;7.128;2023-11-19T02:57:44;7.93;;;2.93;;
2944;SDS011;1482;51.398;7.128;2023-11-19T03:00:16;9.10;;;2.87;;
2944;SDS011;1482;51.398;7.128;2023-11-19T03:02:42;5.57;;;3.73;;
2944;SDS011;1482;51.398;7.128;2023-11-19T03:05:13;8.00;;;3.37;;
2944;SDS011;1482;51.398;7.128;2023-11-19T03:07:40;9.90;;;3.23;;
2944;SDS011;1482;51.398;7.128;2023-11-19T03:10:07;7.90;;;3.37;;
2944;SDS011;1482;51.398;7.128;2023-11-19T03:12:34;6.40;;;3.43;;
2944;SDS011;1482;51.398;7.128;2023-11-19T03:15:00;8.83;;;2.80;;
2944;SDS011;1482;51.398;7.128;2023-11-19T03:17:26;10.03;;;2.90;;
2944;SDS011;1482;51.398;7.128;2023-11-19T03:19:52;4.53;;;2.63;;
2944;SDS011;1482;51.398;7.128;2023-11-19T03:22:18;9.23;;;4.27;;
2944;SDS011;1482;51.398;7.128;2023-11-19T03:24:43;17.67;;;4.93;;
2944;SDS011;1482;51.398;7.128;2023-11-19T03:27:09;6.00;;;3.30;;
2944;SDS011;1482;51.398;7.128;2023-11-19T03:29:35;12.40;;;3.77;;
2944;SDS011;1482;51.398;7.128;2023-11-19T03:32:00;9.67;;;3.20;;
2944;SDS011;1482;51.398;7.128;2023-11-19T03:34:26;15.13;;;3.40;;
2944;SDS011;1482;51.398;7.128;2023-11-19T03:36:51;12.23;;;4.63;;
2944;SDS011;1482;51.398;7.128;2023-11-19T03:39:17;13.47;;;4.70;;
2944;SDS011;1482;51.398;7.128;2023-11-19T03:41:45;9.17;;;3.93;;
2944;SDS011;1482;51.398;7.128;2023-11-19T03:44:12;15.53;;;3.73;;
2944;SDS011;1482;51.398;7.128;2023-11-19T03:46:37;15.23;;;4.07;;
2944;SDS011;1482;51.398;7.128;2023-11-19T03:49:03;8.87;;;3.20;;
2944;SDS011;1482;51.398;7.128;2023-11-19T03:51:29;11.40;;;4.33;;
2944;SDS011;1482;51.398;7.128;2023-11-19T03:53:55;11.00;;;3.97;;
2944;SDS011;1482;51.398;7.128;2023-11-19T03:56:20;15.70;;;3.30;;
2944;SDS011;1482;51.398;7.128;2023-11-19T03:58:46;13.77;;;4.37;;
2944;SDS011;1482;51.398;7.128;2023-11-19T04:01:11;12.40;;;3.67;;
2944;SDS011;1482;51.398;7.128;2023-11-19T04:03:40;13.00;;;6.10;;
2944;SDS011;1482;51.398;7.128;2023-11-19T04:06:06;11.90;;;3.50;;
2944;SDS011;1482;51.398;7.128;2023-11-19T04:08:31;9.00;;;4.50;;
2944;SDS011;1482;51.398;7.128;2023-11-19T04:10:57;9.80;;;3.53;;
2944;SDS011;1482;51.398;7.128;2023-11-19T04:13:22;8.10;;;3.10;;
2944;SDS011;1482;51.398;7.128;2023-11-19T04:15:49;9.00;;;3.83;;
2944;SDS011;1482;51.398;7.128;2023-11-19T04:18:15;10.97;;;4.07;;
2944;SDS011;1482;51.398;7.128;2023-11-19T04:20:41;10.17;;;3.40;;
2944;SDS011;1482;51.398;7.128;2023-11-19T04:23:07;19.70;;;4.00;;
2944;SDS011;1482;51.398;7.128;2023-11-19T04:25:34;15.43;;;4.10;;
2944;SDS011;1482;51.398;7.128;2023-11-19T04:28:00;12.87;;;3.70;;
2944;SDS011;1482;51.398;7.128;2023-11-19T04:30:26;7.53;;;3.93;;
2944;SDS011;1482;51.398;7.128;2023-11-19T04:32:51;22.20;;;5.17;;
2944;SDS011;1482;51.398;7.128;2023-11-19T04:35:17;21.33;;;3.80;;
2944;SDS011;1482;51.398;7.128;2023-11-19T04:37:44;13.50;;;4.50;;
2944;SDS011;1482;51.398;7.128;2023-11-19T04:40:09;30.10;;;4.57;;
2944;SDS011;1482;51.398;7.128;2023-11-19T04:42:36;15.87;;;3.30;;
2944;SDS011;1482;51.398;7.128;2023-11-19T04:45:07;20.17;;;4.97;;
2944;SDS011;1482;51.398;7.128;2023-11-19T04:47:35;22.73;;;4.60;;
2944;SDS011;1482;51.398;7.128;2023-11-19T04:50:01;18.10;;;4.90;;
2944;SDS011;1482;51.398;7.128;2023-11-19T04:52:27;18.50;;;5.23;;
2944;SDS011;1482;51.398;7.128;2023-11-19T04:54:52;20.80;;;4.97;;
2944;SDS011;1482;51.398;7.128;2023-11-19T04:57:18;25.47;;;6.53;;
2944;SDS011;1482;51.398;7.128;2023-11-19T04:59:44;13.43;;;3.47;;
2944;SDS011;1482;51.398;7.128;2023-11-19T05:02:10;43.40;;;6.43;;
2944;SDS011;1482;51.398;7.128;2023-11-19T05:04:35;15.90;;;3.80;;
2944;SDS011;1482;51.398;7.128;2023-11-19T05:07:02;14.17;;;4.37;;
2944;SDS011;1482;51.398;7.128;2023-11-19T05:09:28;24.40;;;4.77;;
2944;SDS011;1482;51.398;7.128;2023-11-19T05:11:53;26.97;;;4.30;;
2944;SDS011;1482;51.398;7.128;2023-11-19T05:14:19;26.87;;;5.60;;
2944;SDS011;1482;51.398;7.128;2023-11-19T05:16:46;31.10;;;4.87;;
2944;SDS011;1482;51.398;7.128;2023-11-19T05:19:12;21.03;;;5.60;;
2944;SDS011;1482;51.398;7.128;2023-11-19T05:21:37;24.43;;;4.53;;
2944;SDS011;1482;51.398;7.128;2023-11-19T05:24:03;23.47;;;3.93;;
2944;SDS011;1482;51.398;7.128;2023-11-19T05:26:29;29.60;;;6.53;;
2944;SDS011;1482;51.398;7.128;2023-11-19T05:28:55;31.53;;;5.90;;
2944;SDS011;1482;51.398;7.128;2023-11-19T05:31:21;26.67;;;7.20;;
2944;SDS011;1482;51.398;7.128;2023-11-19T05:33:46;19.20;;;4.83;;
2944;SDS011;1482;51.398;7.128;2023-11-19T05:36:12;19.87;;;4.27;;
2944;SDS011;1482;51.398;7.128;2023-11-19T05:38:38;14.10;;;4.20;;
2944;SDS011;1482;51.398;7.128;2023-11-19T05:41:04;16.83;;;4.03;;
2944;SDS011;1482;51.398;7.128;2023-11-19T05:43:30;17.83;;;4.83;;
2944;SDS011;1482;51.398;7.128;2023-11-19T05:45:56;18.50;;;4.73;;
2944;SDS011;1482;51.398;7.128;2023-11-19T05:48:22;26.20;;;5.20;;
2944;SDS011;1482;51.398;7.128;2023-11-19T05:50:47;19.00;;;5.07;;
2944;SDS011;1482;51.398;7.128;2023-11-19T05:53:15;23.63;;;6.83;;
2944;SDS011;1482;51.398;7.128;2023-11-19T05:55:41;18.57;;;5.67;;
2944;SDS011;1482;51.398;7.128;2023-11-19T05:58:19;22.63;;;7.00;;
2944;SDS011;1482;51.398;7.128;2023-11-19T06:00:47;15.43;;;5.00;;
2944;SDS011;1482;51.398;7.128;2023-11-19T06:03:12;28.37;;;5.90;;
2944;SDS011;1482;51.398;7.128;2023-11-19T06:05:38;23.57;;;5.70;;
2944;SDS011;1482;51.398;7.128;2023-11-19T06:08:04;24.33;;;5.13;;
2944;SDS011;1482;51.398;7.128;2023-11-19T06:10:31;13.47;;;3.97;;
2944;SDS011;1482;51.398;7.128;2023-11-19T06:12:58;23.77;;;5.73;;
2944;SDS011;1482;51.398;7.128;2023-11-19T06:15:24;21.97;;;4.40;;
2944;SDS011;1482;51.398;7.128;2023-11-19T06:17:53;16.33;;;5.17;;
2944;SDS011;1482;51.398;7.128;2023-11-19T06:20:19;20.93;;;3.87;;
2944;SDS011;1482;51.398;7.128;2023-11-19T06:22:45;22.63;;;6.00;;
2944;SDS011;1482;51.398;7.128;2023-11-19T06:25:11;29.93;;;4.60;;
2944;SDS011;1482;51.398;7.128;2023-11-19T06:27:39;23.80;;;5.27;;
2944;SDS011;1482;51.398;7.128;2023-11-19T06:30:08;27.10;;;4.60;;
2944;SDS011;1482;51.398;7.128;2023-11-19T06:32:34;18.80;;;4.00;;
2944;SDS011;1482;51.398;7.128;2023-11-19T06:35:00;28.77;;;5.57;;
2944;SDS011;1482;51.398;7.128;2023-11-19T06:37:25;19.63;;;5.17;;
2944;SDS011;1482;51.398;7.128;2023-11-19T06:39:52;14.00;;;4.20;;
2944;SDS011;1482;51.398;7.128;2023-11-19T06:42:17;15.87;;;3.90;;
2944;SDS011;1482;51.398;7.128;2023-11-19T06:44:43;14.23;;;4.30;;
2944;SDS011;1482;51.398;7.128;2023-11-19T06:47:09;22.97;;;4.80;;
2944;SDS011;1482;51.398;7.128;2023-11-19T06:49:34;14.00;;;4.50;;
2944;SDS011;1482;51.398;7.128;2023-11-19T06:52:00;17.43;;;4.20;;
2944;SDS011;1482;51.398;7.128;2023-11-19T06:54:25;11.67;;;4.10;;
2944;SDS011;1482;51.398;7.128;2023-11-19T06:56:51;23.27;;;4.53;;
2944;SDS011;1482;51.398;7.128;2023-11-19T06:59:16;29.90;;;6.70;;
2944;SDS011;1482;51.398;7.128;2023-11-19T07:01:42;13.97;;;3.97;;
2944;SDS011;1482;51.398;7.128;2023-11-19T07:04:11;30.07;;;5.63;;
2944;SDS011;1482;51.398;7.128;2023-11-19T07:06:37;17.07;;;4.63;;
2944;SDS011;1482;51.398;7.128;2023-11-19T07:09:04;27.30;;;5.73;;
2944;SDS011;1482;51.398;7.128;2023-11-19T07:11:37;25.73;;;5.10;;
2944;SDS011;1482;51.398;7.128;2023-11-19T07:14:04;23.37;;;5.07;;
2944;SDS011;1482;51.398;7.128;2023-11-19T07:16:31;17.20;;;4.47;;
2944;SDS011;1482;51.398;7.128;2023-11-19T07:19:02;23.63;;;4.80;;
2944;SDS011;1482;51.398;7.128;2023-11-19T07:21:28;37.20;;;5.90;;
2944;SDS011;1482;51.398;7.128;2023-11-19T07:23:56;22.93;;;5.77;;
2944;SDS011;1482;51.398;7.128;2023-11-19T07:26:22;18.03;;;4.60;;
2944;SDS011;1482;51.398;7.128;2023-11-19T07:28:48;24.27;;;5.77;;
2944;SDS011;1482;51.398;7.128;2023-11-19T07:31:14;18.13;;;6.77;;
2944;SDS011;1482;51.398;7.128;2023-11-19T07:33:40;24.13;;;5.93;;
2944;SDS011;1482;51.398;7.128;2023-11-19T07:36:08;21.53;;;5.20;;
2944;SDS011;1482;51.398;7.128;2023-11-19T07:38:34;19.93;;;4.00;;
2944;SDS011;1482;51.398;7.128;2023-11-19T07:40:59;23.10;;;4.67;;
2944;SDS011;1482;51.398;7.128;2023-11-19T07:43:25;14.30;;;3.30;;
2944;SDS011;1482;51.398;7.128;2023-11-19T07:45:51;20.90;;;4.10;;
2944;SDS011;1482;51.398;7.128;2023-11-19T07:48:17;22.70;;;5.13;;
2944;SDS011;1482;51.398;7.128;2023-11-19T07:50:47;19.90;;;4.43;;
2944;SDS011;1482;51.398;7.128;2023-11-19T07:53:15;12.00;;;4.33;;
2944;SDS011;1482;51.398;7.128;2023-11-19T07:55:44;20.17;;;5.30;;
2944;SDS011;1482;51.398;7.128;2023-11-19T07:58:10;25.80;;;6.67;;
2944;SDS011;1482;51.398;7.128;2023-11-19T08:00:36;20.77;;;4.03;;
2944;SDS011;1482;51.398;7.128;2023-11-19T08:03:02;36.33;;;8.50;;
2944;SDS011;1482;51.398;7.128;2023-11-19T08:05:29;18.40;;;4.80;;
2944;SDS011;1482;51.398;7.128;2023-11-19T08:07:54;14.57;;;4.63;;
2944;SDS011;1482;51.398;7.128;2023-11-19T08:10:20;19.90;;;5.10;;
2944;SDS011;1482;51.398;7.128;2023-11-19T08:12:46;29.80;;;5.90;;
2944;SDS011;1482;51.398;7.128;2023-11-19T08:15:12;15.13;;;5.70;;
2944;SDS011;1482;51.398;7.128;2023-11-19T08:17:37;26.40;;;9.40;;
2944;SDS011;1482;51.398;7.128;2023-11-19T08:20:03;23.70;;;5.73;;
2944;SDS011;1482;51.398;7.128;2023-11-19T08:22:30;23.13;;;5.60;;
2944;SDS011;1482;51.398;7.128;2023-11-19T08:24:56;15.23;;;5.00;;
2944;SDS011;1482;51.398;7.128;2023-11-19T08:27:21;19.93;;;6.23;;
2944;SDS011;1482;51.398;7.128;2023-11-19T08:29:53;18.30;;;5.13;;
2944;SDS011;1482;51.398;7.128;2023-11-19T08:32:21;19.47;;;4.40;;
2944;SDS011;1482;51.398;7.128;2023-11-19T08:34:48;17.53;;;6.37;;
2944;SDS011;1482;51.398;7.128;2023-11-19T08:37:13;20.07;;;6.27;;
2944;SDS011;1482;51.398;7.128;2023-11-19T08:39:39;23.40;;;5.77;;
2944;SDS011;1482;51.398;7.128;2023-11-19T08:42:06;21.63;;;6.00;;
2944;SDS011;1482;51.398;7.128;2023-11-19T08:44:31;16.07;;;5.40;;
2944;SDS011;1482;51.398;7.128;2023-11-19T08:46:57;22.40;;;6.00;;
2944;SDS011;1482;51.398;7.128;2023-11-19T08:49:22;20.03;;;5.57;;
2944;SDS011;1482;51.398;7.128;2023-11-19T08:51:48;14.03;;;6.13;;
2944;SDS011;1482;51.398;7.128;2023-11-19T08:54:14;17.03;;;5.70;;
2944;SDS011;1482;51.398;7.128;2023-11-19T08:56:39;28.50;;;5.83;;
2944;SDS011;1482;51.398;7.128;2023-11-19T08:59:05;18.27;;;5.60;;
2944;SDS011;1482;51.398;7.128;2023-11-19T09:01:30;21.80;;;4.90;;
2944;SDS011;1482;51.398;7.128;2023-11-19T09:03:56;26.00;;;6.53;;
2944;SDS011;1482;51.398;7.128;2023-11-19T09:06:22;16.43;;;4.60;;
2944;SDS011;1482;51.398;7.128;2023-11-19T09:08:48;29.63;;;5.40;;
2944;SDS011;1482;51.398;7.128;2023-11-19T09:11:13;15.47;;;4.50;;
2944;SDS011;1482;51.398;7.128;2023-11-19T09:13:39;25.37;;;5.93;;
2944;SDS011;1482;51.398;7.128;2023-11-19T09:16:04;13.37;;;4.20;;
2944;SDS011;1482;51.398;7.128;2023-11-19T09:18:30;19.07;;;5.10;;
2944;SDS011;1482;51.398;7.128;2023-11-19T09:20:57;26.40;;;7.10;;
2944;SDS011;1482;51.398;7.128;2023-11-19T09:23:22;19.07;;;6.10;;
2944;SDS011;1482;51.398;7.128;2023-11-19T09:25:50;18.30;;;4.80;;
2944;SDS011;1482;51.398;7.128;2023-11-19T09:28:16;23.77;;;5.70;;
2944;SDS011;1482;51.398;7.128;2023-11-19T09:30:41;13.47;;;4.60;;
2944;SDS011;1482;51.398;7.128;2023-11-19T09:33:07;24.80;;;5.80;;
2944;SDS011;1482;51.398;7.128;2023-11-19T09:35:32;18.87;;;6.00;;
2944;SDS011;1482;51.398;7.128;2023-11-19T09:37:58;29.20;;;5.20;;
2944;SDS011;1482;51.398;7.128;2023-11-19T09:40:24;19.80;;;6.27;;
2944;SDS011;1482;51.398;7.128;2023-11-19T09:42:49;24.93;;;6.70;;
2944;SDS011;1482;51.398;7.128;2023-11-19T09:45:16;43.40;;;7.40;;
2944;SDS011;1482;51.398;7.128;2023-11-19T09:47:46;30.93;;;6.60;;
2944;SDS011;1482;51.398;7.128;2023-11-19T09:50:18;25.87;;;5.80;;
2944;SDS011;1482;51.398;7.128;2023-11-19T09:52:44;20.60;;;7.10;;
2944;SDS011;1482;51.398;7.128;2023-11-19T09:55:10;16.83;;;4.93;;
2944;SDS011;1482;51.398;7.128;2023-11-19T09:57:38;19.90;;;5.20;;
2944;SDS011;1482;51.398;7.128;2023-11-19T10:00:05;19.20;;;5.60;;
2944;SDS011;1482;51.398;7.128;2023-11-19T10:02:33;20.00;;;5.90;;
2944;SDS011;1482;51.398;7.128;2023-11-19T10:05:01;28.47;;;4.90;;
2944;SDS011;1482;51.398;7.128;2023-11-19T10:07:31;36.17;;;6.40;;
2944;SDS011;1482;51.398;7.128;2023-11-19T10:10:00;21.07;;;5.07;;
2944;SDS011;1482;51.398;7.128;2023-11-19T10:12:26;17.60;;;5.73;;
2944;SDS011;1482;51.398;7.128;2023-11-19T10:14:53;28.77;;;6.60;;
2944;SDS011;1482;51.398;7.128;2023-11-19T10:17:21;25.83;;;5.43;;
2944;SDS011;1482;51.398;7.128;2023-11-19T10:19:46;21.47;;;5.50;;
2944;SDS011;1482;51.398;7.128;2023-11-19T10:22:12;23.53;;;6.03;;
2944;SDS011;1482;51.398;7.128;2023-11-19T10:24:39;21.70;;;5.50;;
2944;SDS011;1482;51.398;7.128;2023-11-19T10:27:09;13.27;;;5.00;;
2944;SDS011;1482;51.398;7.128;2023-11-19T10:29:37;24.43;;;5.50;;
2944;SDS011;1482;51.398;7.128;2023-11-19T10:32:03;18.27;;;4.93;;
2944;SDS011;1482;51.398;7.128;2023-11-19T10:34:30;17.60;;;4.20;;
2944;SDS011;1482;51.398;7.128;2023-11-19T10:36:55;25.53;;;5.40;;
2944;SDS011;1482;51.398;7.128;2023-11-19T10:39:21;16.70;;;4.50;;
2944;SDS011;1482;51.398;7.128;2023-11-19T10:41:48;25.20;;;4.73;;
2944;SDS011;1482;51.398;7.128;2023-11-19T10:44:30;17.10;;;4.40;;
2944;SDS011;1482;51.398;7.128;2023-11-19T10:47:05;23.70;;;5.10;;
2944;SDS011;1482;51.398;7.128;2023-11-19T10:49:32;17.77;;;5.07;;
2944;SDS011;1482;51.398;7.128;2023-11-19T10:52:00;24.70;;;5.80;;
2944;SDS011;1482;51.398;7.128;2023-11-19T10:54:26;23.70;;;5.47;;
2944;SDS011;1482;51.398;7.128;2023-11-19T10:56:58;26.93;;;4.53;;
2944;SDS011;1482;51.398;7.128;2023-11-19T10:59:24;33.57;;;6.50;;
2944;SDS011;1482;51.398;7.128;2023-11-19T11:01:53;27.03;;;6.10;;
2944;SDS011;1482;51.398;7.128;2023-11-19T11:04:24;22.33;;;5.53;;
2944;SDS011;1482;51.398;7.128;2023-11-19T11:06:52;21.03;;;4.33;;
2944;SDS011;1482;51.398;7.128;2023-11-19T11:09:19;27.10;;;5.17;;
2944;SDS011;1482;51.398;7.128;2023-11-19T11:11:46;24.10;;;6.50;;
2944;SDS011;1482;51.398;7.128;2023-11-19T11:14:12;28.73;;;5.60;;
2944;SDS011;1482;51.398;7.128;2023-11-19T11:16:42;14.47;;;4.83;;
2944;SDS011;1482;51.398;7.128;2023-11-19T11:19:09;15.70;;;4.47;;
2944;SDS011;1482;51.398;7.128;2023-11-19T11:21:35;21.37;;;5.23;;
2944;SDS011;1482;51.398;7.128;2023-11-19T11:29:37;17.77;;;4.70;;
2944;SDS011;1482;51.398;7.128;2023-11-19T11:37:46;27.63;;;6.10;;
2944;SDS011;1482;51.398;7.128;2023-11-19T11:40:15;26.43;;;4.70;;
2944;SDS011;1482;51.398;7.128;2023-11-19T11:42:43;13.33;;;3.80;;
2944;SDS011;1482;51.398;7.128;2023-11-19T11:45:12;21.97;;;4.30;;
2944;SDS011;1482;51.398;7.128;2023-11-19T11:50:17;29.00;;;5.03;;
2944;SDS011;1482;51.398;7.128;2023-11-19T11:55:27;15.03;;;5.00;;
2944;SDS011;1482;51.398;7.128;2023-11-19T11:57:53;15.00;;;4.47;;
2944;SDS011;1482;51.398;7.128;2023-11-19T12:00:30;24.80;;;5.90;;
2944;SDS011;1482;51.398;7.128;2023-11-19T12:03:07;35.37;;;6.27;;
2944;SDS011;1482;51.398;7.128;2023-11-19T12:05:33;27.90;;;6.70;;
2944;SDS011;1482;51.398;7.128;2023-11-19T12:08:07;23.30;;;7.43;;
2944;SDS011;1482;51.398;7.128;2023-11-19T12:10:37;15.13;;;4.63;;
2944;SDS011;1482;51.398;7.128;2023-11-19T12:13:14;23.10;;;5.47;;
2944;SDS011;1482;51.398;7.128;2023-11-19T12:18:22;16.60;;;4.17;;
2944;SDS011;1482;51.398;7.128;2023-11-19T12:20:49;17.00;;;3.93;;
2944;SDS011;1482;51.398;7.128;2023-11-19T12:23:15;12.87;;;3.53;;
2944;SDS011;1482;51.398;7.128;2023-11-19T12:25:40;16.97;;;4.57;;
2944;SDS011;1482;51.398;7.128;2023-11-19T12:28:11;20.13;;;5.10;;
2944;SDS011;1482;51.398;7.128;2023-11-19T12:30:37;15.20;;;3.87;;
2944;SDS011;1482;51.398;7.128;2023-11-19T12:33:07;25.23;;;5.33;;
2944;SDS011;1482;51.398;7.128;2023-11-19T12:35:38;17.23;;;4.40;;
2944;SDS011;1482;51.398;7.128;2023-11-19T12:38:08;14.63;;;5.83;;
2944;SDS011;1482;51.398;7.128;2023-11-19T12:40:43;19.90;;;4.60;;
2944;SDS011;1482;51.398;7.128;2023-11-19T12:43:08;26.67;;;5.47;;
2944;SDS011;1482;51.398;7.128;2023-11-19T12:45:35;13.03;;;3.80;;
2944;SDS011;1482;51.398;7.128;2023-11-19T12:48:04;13.13;;;4.03;;
2944;SDS011;1482;51.398;7.128;2023-11-19T12:50:50;23.37;;;7.03;;
2944;SDS011;1482;51.398;7.128;2023-11-19T12:53:17;11.90;;;3.90;;
2944;SDS011;1482;51.398;7.128;2023-11-19T12:55:43;24.77;;;4.00;;
2944;SDS011;1482;51.398;7.128;2023-11-19T12:58:08;12.20;;;3.90;;
2944;SDS011;1482;51.398;7.128;2023-11-19T13:00:34;17.03;;;4.30;;
2944;SDS011;1482;51.398;7.128;2023-11-19T13:03:00;17.70;;;3.40;;
2944;SDS011;1482;51.398;7.128;2023-11-19T13:05:32;22.23;;;3.70;;
2944;SDS011;1482;51.398;7.128;2023-11-19T13:08:02;22.40;;;4.60;;
2944;SDS011;1482;51.398;7.128;2023-11-19T13:10:28;26.80;;;4.70;;
2944;SDS011;1482;51.398;7.128;2023-11-19T13:13:07;23.57;;;4.73;;
2944;SDS011;1482;51.398;7.128;2023-11-19T13:15:34;14.43;;;3.17;;
2944;SDS011;1482;51.398;7.128;2023-11-19T13:18:00;13.50;;;5.23;;
2944;SDS011;1482;51.398;7.128;2023-11-19T13:20:27;8.03;;;2.50;;
2944;SDS011;1482;51.398;7.128;2023-11-19T13:22:57;7.90;;;2.60;;
2944;SDS011;1482;51.398;7.128;2023-11-19T13:25:27;13.77;;;2.50;;
2944;SDS011;1482;51.398;7.128;2023-11-19T13:27:54;12.97;;;2.80;;
2944;SDS011;1482;51.398;7.128;2023-11-19T13:30:20;14.73;;;3.43;;
2944;SDS011;1482;51.398;7.128;2023-11-19T13:32:47;10.43;;;2.63;;
2944;SDS011;1482;51.398;7.128;2023-11-19T13:35:13;8.73;;;3.10;;
2944;SDS011;1482;51.398;7.128;2023-11-19T13:37:38;18.37;;;3.60;;
2944;SDS011;1482;51.398;7.128;2023-11-19T13:40:05;23.40;;;4.47;;
2944;SDS011;1482;51.398;7.128;2023-11-19T13:42:43;11.67;;;3.73;;
2944;SDS011;1482;51.398;7.128;2023-11-19T13:45:09;15.90;;;3.27;;
2944;SDS011;1482;51.398;7.128;2023-11-19T13:47:40;18.47;;;4.23;;
2944;SDS011;1482;51.398;7.128;2023-11-19T13:50:07;18.87;;;4.43;;
2944;SDS011;1482;51.398;7.128;2023-11-19T13:52:39;13.80;;;4.30;;
2944;SDS011;1482;51.398;7.128;2023-11-19T13:55:06;15.83;;;4.50;;
2944;SDS011;1482;51.398;7.128;2023-11-19T13:57:33;13.97;;;4.07;;
2944;SDS011;1482;51.398;7.128;2023-11-19T14:00:00;19.47;;;3.63;;
2944;SDS011;1482;51.398;7.128;2023-11-19T14:02:31;15.93;;;5.07;;
2944;SDS011;1482;51.398;7.128;2023-11-19T14:04:58;17.50;;;3.93;;
2944;SDS011;1482;51.398;7.128;2023-11-19T14:07:23;19.90;;;4.90;;
2944;SDS011;1482;51.398;7.128;2023-11-19T14:09:49;13.07;;;4.70;;
2944;SDS011;1482;51.398;7.128;2023-11-19T14:12:15;16.33;;;4.53;;
2944;SDS011;1482;51.398;7.128;2023-11-19T14:14:41;18.37;;;5.00;;
2944;SDS011;1482;51.398;7.128;2023-11-19T14:17:07;11.50;;;5.20;;
2944;SDS011;1482;51.398;7.128;2023-11-19T14:19:33;13.07;;;4.03;;
2944;SDS011;1482;51.398;7.128;2023-11-19T14:21:58;11.40;;;5.60;;
2944;SDS011;1482;51.398;7.128;2023-11-19T14:24:25;20.93;;;4.57;;
2944;SDS011;1482;51.398;7.128;2023-11-19T14:26:51;13.97;;;3.83;;
2944;SDS011;1482;51.398;7.128;2023-11-19T14:29:16;16.70;;;5.30;;
2944;SDS011;1482;51.398;7.128;2023-11-19T14:31:43;14.73;;;4.60;;
2944;SDS011;1482;51.398;7.128;2023-11-19T14:34:08;13.23;;;4.07;;
2944;SDS011;1482;51.398;7.128;2023-11-19T14:36:34;16.20;;;5.03;;
2944;SDS011;1482;51.398;7.128;2023-11-19T14:38:59;21.93;;;5.43;;
2944;SDS011;1482;51.398;7.128;2023-11-19T14:41:25;26.77;;;4.93;;
2944;SDS011;1482;51.398;7.128;2023-11-19T14:43:51;22.57;;;4.57;;
2944;SDS011;1482;51.398;7.128;2023-11-19T14:46:17;17.37;;;3.60;;
2944;SDS011;1482;51.398;7.128;2023-11-19T14:48:43;15.83;;;4.00;;
2944;SDS011;1482;51.398;7.128;2023-11-19T14:51:08;18.10;;;5.00;;
2944;SDS011;1482;51.398;7.128;2023-11-19T14:53:34;14.03;;;3.60;;
2944;SDS011;1482;51.398;7.128;2023-11-19T14:55:59;18.47;;;4.17;;
2944;SDS011;1482;51.398;7.128;2023-11-19T14:58:25;23.00;;;6.20;;
2944;SDS011;1482;51.398;7.128;2023-11-19T15:00:51;18.20;;;6.50;;
2944;SDS011;1482;51.398;7.128;2023-11-19T15:03:17;14.00;;;3.73;;
2944;SDS011;1482;51.398;7.128;2023-11-19T15:05:47;14.20;;;3.63;;
2944;SDS011;1482;51.398;7.128;2023-11-19T15:08:12;15.53;;;4.20;;
2944;SDS011;1482;51.398;7.128;2023-11-19T15:10:41;12.83;;;3.17;;
2944;SDS011;1482;51.398;7.128;2023-11-19T15:13:07;16.40;;;4.77;;
2944;SDS011;1482;51.398;7.128;2023-11-19T15:15:34;8.90;;;3.50;;
2944;SDS011;1482;51.398;7.128;2023-11-19T15:17:59;19.60;;;4.50;;
2944;SDS011;1482;51.398;7.128;2023-11-19T15:20:25;19.17;;;5.50;;
2944;SDS011;1482;51.398;7.128;2023-11-19T15:22:54;13.47;;;3.70;;
2944;SDS011;1482;51.398;7.128;2023-11-19T15:25:23;18.13;;;3.63;;